sensor_id;sensor_type;location;lat;lon;timestamp;pressure;altitude;pressure_sealevel;temperature;humidity
49627;BME280;35527;54.616;39.786;2023-03-29T00:02:18;99144.44;;;7.09;92.45
49627;BME280;35527;54.616;39.786;2023-03-29T00:05:25;99150.81;;;7.24;92.80
49627;BME280;35527;54.616;39.786;2023-03-29T00:08:29;99152.38;;;7.03;92.94
49627;BME280;35527;54.616;39.786;2023-03-29T00:11:33;99144.00;;;6.98;92.48
49627;BME280;35527;54.616;39.786;2023-03-29T00:14:37;99104.19;;;6.85;93.34
49627;BME280;35527;54.616;39.786;2023-03-29T00:17:41;99161.16;;;7.22;92.82
49627;BME280;35527;54.616;39.786;2023-03-29T00:20:45;99129.19;;;7.05;92.86
49627;BME280;35527;54.616;39.786;2023-03-29T00:23:47;99144.69;;;7.27;93.16
49627;BME280;35527;54.616;39.786;2023-03-29T00:26:50;99129.41;;;6.98;94.00
49627;BME280;35527;54.616;39.786;2023-03-29T00:29:55;99146.63;;;6.96;94.50
49627;BME280;35527;54.616;39.786;2023-03-29T00:32:59;99135.56;;;6.94;94.60
49627;BME280;35527;54.616;39.786;2023-03-29T00:36:05;99146.75;;;6.93;94.98
49627;BME280;35527;54.616;39.786;2023-03-29T00:39:09;99144.09;;;6.95;94.45
49627;BME280;35527;54.616;39.786;2023-03-29T00:42:15;99150.25;;;7.16;95.00
49627;BME280;35527;54.616;39.786;2023-03-29T00:45:21;99118.53;;;7.15;93.47
49627;BME280;35527;54.616;39.786;2023-03-29T00:48:26;99145.75;;;7.21;93.60
49627;BME280;35527;54.616;39.786;2023-03-29T00:51:35;99129.88;;;7.10;93.14
49627;BME280;35527;54.616;39.786;2023-03-29T00:54:43;99133.44;;;7.29;92.80
49627;BME280;35527;54.616;39.786;2023-03-29T00:57:49;99095.22;;;6.95;93.50
49627;BME280;35527;54.616;39.786;2023-03-29T01:00:59;99140.81;;;7.15;93.37
49627;BME280;35527;54.616;39.786;2023-03-29T01:04:18;99103.69;;;7.22;93.39
49627;BME280;35527;54.616;39.786;2023-03-29T01:07:43;99103.13;;;7.14;93.39
49627;BME280;35527;54.616;39.786;2023-03-29T01:10:58;99129.69;;;7.14;93.51
49627;BME280;35527;54.616;39.786;2023-03-29T01:14:18;99093.84;;;7.33;92.66
49627;BME280;35527;54.616;39.786;2023-03-29T01:17:24;99104.22;;;7.07;92.12
49627;BME280;35527;54.616;39.786;2023-03-29T01:30:51;99083.47;;;7.35;91.23
49627;BME280;35527;54.616;39.786;2023-03-29T01:34:09;99058.19;;;7.22;90.48
49627;BME280;35527;54.616;39.786;2023-03-29T01:37:26;99102.09;;;7.18;92.24
49627;BME280;35527;54.616;39.786;2023-03-29T01:40:32;99088.38;;;7.19;91.66
49627;BME280;35527;54.616;39.786;2023-03-29T01:50:42;99094.00;;;7.05;93.05
49627;BME280;35527;54.616;39.786;2023-03-29T01:54:25;99085.94;;;6.91;92.92
49627;BME280;35527;54.616;39.786;2023-03-29T01:57:18;99078.00;;;6.97;92.90
49627;BME280;35527;54.616;39.786;2023-03-29T02:00:28;99081.97;;;6.82;94.17
49627;BME280;35527;54.616;39.786;2023-03-29T02:03:33;99084.59;;;6.81;93.44
49627;BME280;35527;54.616;39.786;2023-03-29T02:06:46;99078.34;;;6.88;93.22
49627;BME280;35527;54.616;39.786;2023-03-29T02:09:52;99074.94;;;6.87;93.58
49627;BME280;35527;54.616;39.786;2023-03-29T02:12:58;99068.22;;;6.83;93.29
49627;BME280;35527;54.616;39.786;2023-03-29T02:16:08;99045.97;;;6.82;93.35
49627;BME280;35527;54.616;39.786;2023-03-29T02:19:14;99004.34;;;6.72;93.08
49627;BME280;35527;54.616;39.786;2023-03-29T02:22:23;99100.00;;;7.06;92.33
49627;BME280;35527;54.616;39.786;2023-03-29T02:25:30;99047.13;;;6.97;91.12
49627;BME280;35527;54.616;39.786;2023-03-29T02:28:59;99096.34;;;7.11;91.90
49627;BME280;35527;54.616;39.786;2023-03-29T02:32:07;99095.69;;;7.06;91.84
49627;BME280;35527;54.616;39.786;2023-03-29T02:35:23;99096.94;;;6.71;93.89
49627;BME280;35527;54.616;39.786;2023-03-29T02:38:28;99062.31;;;6.81;93.57
49627;BME280;35527;54.616;39.786;2023-03-29T02:41:36;99053.63;;;6.84;92.34
49627;BME280;35527;54.616;39.786;2023-03-29T02:44:42;99055.44;;;6.82;92.88
49627;BME280;35527;54.616;39.786;2023-03-29T02:47:51;99075.41;;;6.98;91.87
49627;BME280;35527;54.616;39.786;2023-03-29T02:51:00;99069.84;;;6.86;91.80
49627;BME280;35527;54.616;39.786;2023-03-29T02:54:16;99078.34;;;6.88;91.98
49627;BME280;35527;54.616;39.786;2023-03-29T02:57:22;99076.38;;;6.94;91.78
49627;BME280;35527;54.616;39.786;2023-03-29T03:00:29;99080.13;;;6.86;91.70
49627;BME280;35527;54.616;39.786;2023-03-29T03:03:33;99073.53;;;6.79;91.94
49627;BME280;35527;54.616;39.786;2023-03-29T03:06:39;99081.19;;;6.80;91.88
49627;BME280;35527;54.616;39.786;2023-03-29T03:09:46;99016.16;;;6.76;91.23
49627;BME280;35527;54.616;39.786;2023-03-29T03:12:49;99039.31;;;6.76;90.97
49627;BME280;35527;54.616;39.786;2023-03-29T03:15:56;99037.09;;;6.67;91.23
49627;BME280;35527;54.616;39.786;2023-03-29T03:19:00;99064.25;;;6.74;91.88
49627;BME280;35527;54.616;39.786;2023-03-29T03:22:04;99050.06;;;6.64;91.34
49627;BME280;35527;54.616;39.786;2023-03-29T03:25:11;99086.81;;;6.66;92.26
49627;BME280;35527;54.616;39.786;2023-03-29T03:28:16;99081.94;;;6.59;92.26
49627;BME280;35527;54.616;39.786;2023-03-29T03:31:21;99067.81;;;6.70;91.44
49627;BME280;35527;54.616;39.786;2023-03-29T03:34:42;99065.50;;;6.88;90.61
49627;BME280;35527;54.616;39.786;2023-03-29T03:37:47;99062.72;;;6.69;90.35
49627;BME280;35527;54.616;39.786;2023-03-29T03:40:53;99027.81;;;6.87;89.95
49627;BME280;35527;54.616;39.786;2023-03-29T03:44:01;99040.09;;;7.02;90.15
49627;BME280;35527;54.616;39.786;2023-03-29T03:47:05;99027.75;;;6.88;89.72
49627;BME280;35527;54.616;39.786;2023-03-29T03:50:10;99056.03;;;6.88;89.16
49627;BME280;35527;54.616;39.786;2023-03-29T03:53:15;99049.44;;;6.81;90.11
49627;BME280;35527;54.616;39.786;2023-03-29T03:56:47;99034.56;;;6.89;90.64
49627;BME280;35527;54.616;39.786;2023-03-29T04:00:01;99011.25;;;6.70;90.05
49627;BME280;35527;54.616;39.786;2023-03-29T04:03:13;99036.75;;;6.76;90.80
49627;BME280;35527;54.616;39.786;2023-03-29T04:06:18;98954.56;;;6.73;90.27
49627;BME280;35527;54.616;39.786;2023-03-29T04:09:39;99037.44;;;6.82;90.20
49627;BME280;35527;54.616;39.786;2023-03-29T04:13:02;98998.78;;;6.83;90.20
49627;BME280;35527;54.616;39.786;2023-03-29T04:16:10;99041.28;;;6.93;89.27
49627;BME280;35527;54.616;39.786;2023-03-29T04:19:15;99025.25;;;6.87;88.70
49627;BME280;35527;54.616;39.786;2023-03-29T04:22:21;99003.25;;;6.78;89.16
49627;BME280;35527;54.616;39.786;2023-03-29T04:25:24;99012.88;;;6.96;88.06
49627;BME280;35527;54.616;39.786;2023-03-29T04:28:52;99011.13;;;6.97;87.64
49627;BME280;35527;54.616;39.786;2023-03-29T04:32:11;99050.19;;;7.07;87.30
49627;BME280;35527;54.616;39.786;2023-03-29T04:35:32;99037.28;;;7.08;86.39
49627;BME280;35527;54.616;39.786;2023-03-29T04:38:37;99021.63;;;7.14;86.25
49627;BME280;35527;54.616;39.786;2023-03-29T04:41:40;99011.22;;;7.17;85.83
49627;BME280;35527;54.616;39.786;2023-03-29T04:44:52;99002.91;;;7.11;85.76
49627;BME280;35527;54.616;39.786;2023-03-29T04:48:07;99006.44;;;7.30;85.52
49627;BME280;35527;54.616;39.786;2023-03-29T04:51:13;99012.16;;;7.15;86.53
49627;BME280;35527;54.616;39.786;2023-03-29T04:54:20;99003.19;;;7.03;86.10
49627;BME280;35527;54.616;39.786;2023-03-29T04:57:47;99001.59;;;7.22;87.08
49627;BME280;35527;54.616;39.786;2023-03-29T05:00:56;98990.50;;;7.20;86.68
49627;BME280;35527;54.616;39.786;2023-03-29T05:04:12;98995.53;;;7.23;85.89
49627;BME280;35527;54.616;39.786;2023-03-29T05:07:29;99004.94;;;7.25;86.64
49627;BME280;35527;54.616;39.786;2023-03-29T05:10:32;99034.63;;;7.33;86.47
49627;BME280;35527;54.616;39.786;2023-03-29T05:13:36;99030.78;;;7.43;86.12
49627;BME280;35527;54.616;39.786;2023-03-29T05:16:40;99012.16;;;7.38;86.27
49627;BME280;35527;54.616;39.786;2023-03-29T05:19:43;99014.41;;;7.46;86.07
49627;BME280;35527;54.616;39.786;2023-03-29T05:22:47;98999.44;;;7.56;86.49
49627;BME280;35527;54.616;39.786;2023-03-29T05:26:14;98939.25;;;7.58;86.16
49627;BME280;35527;54.616;39.786;2023-03-29T05:29:25;98968.34;;;7.60;84.33
49627;BME280;35527;54.616;39.786;2023-03-29T05:32:40;99027.03;;;7.74;84.56
49627;BME280;35527;54.616;39.786;2023-03-29T05:35:48;98968.09;;;7.66;83.78
49627;BME280;35527;54.616;39.786;2023-03-29T05:38:51;98970.06;;;8.02;81.59
49627;BME280;35527;54.616;39.786;2023-03-29T05:41:56;98929.22;;;8.32;78.83
49627;BME280;35527;54.616;39.786;2023-03-29T05:45:10;98996.38;;;8.09;79.98
49627;BME280;35527;54.616;39.786;2023-03-29T05:48:15;98987.13;;;8.25;79.03
49627;BME280;35527;54.616;39.786;2023-03-29T05:51:20;98999.75;;;8.11;79.41
49627;BME280;35527;54.616;39.786;2023-03-29T05:54:29;99021.19;;;8.11;79.24
49627;BME280;35527;54.616;39.786;2023-03-29T05:57:36;98933.91;;;8.24;78.97
49627;BME280;35527;54.616;39.786;2023-03-29T06:00:42;98975.06;;;8.26;79.53
49627;BME280;35527;54.616;39.786;2023-03-29T06:04:23;98986.28;;;8.25;78.44
49627;BME280;35527;54.616;39.786;2023-03-29T06:08:05;99005.25;;;8.44;76.86
49627;BME280;35527;54.616;39.786;2023-03-29T06:11:40;98970.91;;;8.63;75.81
49627;BME280;35527;54.616;39.786;2023-03-29T06:14:44;98994.22;;;8.99;72.33
49627;BME280;35527;54.616;39.786;2023-03-29T06:18:01;99034.91;;;9.49;69.92
49627;BME280;35527;54.616;39.786;2023-03-29T06:21:07;99013.09;;;9.55;68.83
49627;BME280;35527;54.616;39.786;2023-03-29T06:24:10;99003.03;;;9.67;68.87
49627;BME280;35527;54.616;39.786;2023-03-29T06:27:24;99004.50;;;9.90;67.09
49627;BME280;35527;54.616;39.786;2023-03-29T06:30:30;98981.91;;;9.77;66.61
49627;BME280;35527;54.616;39.786;2023-03-29T06:33:36;99026.69;;;10.12;66.22
49627;BME280;35527;54.616;39.786;2023-03-29T06:37:07;99061.84;;;11.33;61.09
49627;BME280;35527;54.616;39.786;2023-03-29T06:40:11;98998.06;;;10.83;61.83
49627;BME280;35527;54.616;39.786;2023-03-29T06:43:17;98993.97;;;11.26;61.35
49627;BME280;35527;54.616;39.786;2023-03-29T06:46:30;98984.19;;;11.32;60.43
49627;BME280;35527;54.616;39.786;2023-03-29T06:49:40;99004.94;;;10.67;62.57
49627;BME280;35527;54.616;39.786;2023-03-29T06:53:05;98944.19;;;10.07;64.70
49627;BME280;35527;54.616;39.786;2023-03-29T06:56:09;98955.09;;;9.79;66.21
49627;BME280;35527;54.616;39.786;2023-03-29T06:59:12;98958.03;;;9.72;67.73
49627;BME280;35527;54.616;39.786;2023-03-29T07:02:27;98954.91;;;9.47;68.76
49627;BME280;35527;54.616;39.786;2023-03-29T07:05:42;98959.53;;;9.58;69.06
49627;BME280;35527;54.616;39.786;2023-03-29T07:08:49;98977.09;;;9.52;69.77
49627;BME280;35527;54.616;39.786;2023-03-29T07:12:24;98981.13;;;9.75;69.39
49627;BME280;35527;54.616;39.786;2023-03-29T07:15:33;98995.72;;;9.58;69.82
49627;BME280;35527;54.616;39.786;2023-03-29T07:19:04;98948.78;;;9.50;70.45
49627;BME280;35527;54.616;39.786;2023-03-29T07:22:31;98923.97;;;9.46;71.35
49627;BME280;35527;54.616;39.786;2023-03-29T07:25:37;98932.34;;;9.34;71.81
49627;BME280;35527;54.616;39.786;2023-03-29T07:28:43;98972.13;;;9.47;71.93
49627;BME280;35527;54.616;39.786;2023-03-29T07:31:50;98976.47;;;9.46;71.79
49627;BME280;35527;54.616;39.786;2023-03-29T07:35:21;98978.47;;;9.59;70.95
49627;BME280;35527;54.616;39.786;2023-03-29T07:38:27;99001.13;;;9.54;72.64
49627;BME280;35527;54.616;39.786;2023-03-29T07:41:37;98964.13;;;9.53;71.90
49627;BME280;35527;54.616;39.786;2023-03-29T07:44:46;99005.16;;;9.59;72.53
49627;BME280;35527;54.616;39.786;2023-03-29T07:47:54;98991.84;;;9.67;72.87
49627;BME280;35527;54.616;39.786;2023-03-29T07:50:58;98964.19;;;9.52;73.88
49627;BME280;35527;54.616;39.786;2023-03-29T07:54:08;98955.28;;;9.57;73.34
49627;BME280;35527;54.616;39.786;2023-03-29T07:57:36;98905.38;;;9.74;73.17
49627;BME280;35527;54.616;39.786;2023-03-29T08:00:40;98967.53;;;9.71;73.76
49627;BME280;35527;54.616;39.786;2023-03-29T08:04:03;98959.63;;;9.57;73.80
49627;BME280;35527;54.616;39.786;2023-03-29T08:07:26;98943.81;;;9.80;73.98
49627;BME280;35527;54.616;39.786;2023-03-29T08:10:39;98911.66;;;10.03;73.13
49627;BME280;35527;54.616;39.786;2023-03-29T08:13:52;98911.06;;;9.81;73.64
49627;BME280;35527;54.616;39.786;2023-03-29T08:17:01;98950.53;;;9.84;73.31
49627;BME280;35527;54.616;39.786;2023-03-29T08:20:13;98942.63;;;9.87;73.15
49627;BME280;35527;54.616;39.786;2023-03-29T08:23:24;98933.16;;;10.04;72.95
49627;BME280;35527;54.616;39.786;2023-03-29T08:26:39;98936.28;;;10.10;72.09
49627;BME280;35527;54.616;39.786;2023-03-29T08:29:44;98971.03;;;10.05;71.68
49627;BME280;35527;54.616;39.786;2023-03-29T08:32:48;98982.88;;;10.09;71.68
49627;BME280;35527;54.616;39.786;2023-03-29T08:35:53;99002.06;;;10.22;71.08
49627;BME280;35527;54.616;39.786;2023-03-29T08:39:03;98936.81;;;10.00;71.49
49627;BME280;35527;54.616;39.786;2023-03-29T08:48:56;98993.38;;;10.41;69.81
49627;BME280;35527;54.616;39.786;2023-03-29T08:52:05;98988.56;;;10.50;69.26
49627;BME280;35527;54.616;39.786;2023-03-29T08:55:34;98886.25;;;10.45;68.71
49627;BME280;35527;54.616;39.786;2023-03-29T08:58:58;99053.47;;;10.46;68.68
49627;BME280;35527;54.616;39.786;2023-03-29T09:02:16;98946.91;;;10.55;68.16
49627;BME280;35527;54.616;39.786;2023-03-29T09:05:39;98932.38;;;10.52;68.97
49627;BME280;35527;54.616;39.786;2023-03-29T09:08:50;99033.09;;;10.22;69.73
49627;BME280;35527;54.616;39.786;2023-03-29T09:16:06;98987.88;;;10.47;69.12
49627;BME280;35527;54.616;39.786;2023-03-29T09:22:45;98960.78;;;10.70;66.73
49627;BME280;35527;54.616;39.786;2023-03-29T09:33:25;98952.38;;;10.33;71.64
49627;BME280;35527;54.616;39.786;2023-03-29T09:36:50;99038.31;;;10.38;71.85
49627;BME280;35527;54.616;39.786;2023-03-29T09:39:56;99025.22;;;10.06;75.14
49627;BME280;35527;54.616;39.786;2023-03-29T09:43:23;99011.03;;;9.98;80.59
49627;BME280;35527;54.616;39.786;2023-03-29T09:46:35;99033.97;;;9.86;84.39
49627;BME280;35527;54.616;39.786;2023-03-29T09:49:44;98968.16;;;9.59;86.37
49627;BME280;35527;54.616;39.786;2023-03-29T09:52:49;99035.75;;;9.67;88.49
49627;BME280;35527;54.616;39.786;2023-03-29T09:55:56;99033.88;;;9.53;91.20
49627;BME280;35527;54.616;39.786;2023-03-29T09:59:10;98993.84;;;9.62;91.46
49627;BME280;35527;54.616;39.786;2023-03-29T10:02:14;99057.06;;;9.72;91.64
49627;BME280;35527;54.616;39.786;2023-03-29T10:05:20;99019.53;;;9.46;94.34
49627;BME280;35527;54.616;39.786;2023-03-29T10:08:44;98999.22;;;9.57;95.45
49627;BME280;35527;54.616;39.786;2023-03-29T10:11:54;98999.56;;;9.50;96.77
49627;BME280;35527;54.616;39.786;2023-03-29T10:14:59;99010.81;;;9.48;97.62
49627;BME280;35527;54.616;39.786;2023-03-29T10:18:06;99025.97;;;9.56;98.46
49627;BME280;35527;54.616;39.786;2023-03-29T10:21:15;99035.88;;;9.46;97.50
49627;BME280;35527;54.616;39.786;2023-03-29T10:24:24;99019.50;;;9.47;99.02
49627;BME280;35527;54.616;39.786;2023-03-29T10:27:30;99028.41;;;9.59;99.78
49627;BME280;35527;54.616;39.786;2023-03-29T10:30:36;99078.81;;;9.49;100.00
49627;BME280;35527;54.616;39.786;2023-03-29T10:33:55;99029.06;;;9.27;100.00
49627;BME280;35527;54.616;39.786;2023-03-29T10:36:59;99027.06;;;9.33;100.00
49627;BME280;35527;54.616;39.786;2023-03-29T10:40:14;99010.69;;;9.33;100.00
49627;BME280;35527;54.616;39.786;2023-03-29T10:46:41;99020.28;;;9.31;100.00
49627;BME280;35527;54.616;39.786;2023-03-29T10:49:50;99030.31;;;9.18;100.00
49627;BME280;35527;54.616;39.786;2023-03-29T10:52:57;99035.19;;;9.24;100.00
49627;BME280;35527;54.616;39.786;2023-03-29T10:56:31;99024.81;;;9.44;100.00
49627;BME280;35527;54.616;39.786;2023-03-29T11:06:27;99032.50;;;9.27;100.00
49627;BME280;35527;54.616;39.786;2023-03-29T11:16:30;99040.66;;;9.18;100.00
49627;BME280;35527;54.616;39.786;2023-03-29T11:19:47;99044.28;;;9.14;100.00
49627;BME280;35527;54.616;39.786;2023-03-29T11:23:06;99025.09;;;9.00;100.00
49627;BME280;35527;54.616;39.786;2023-03-29T11:26:24;99034.66;;;9.17;100.00
49627;BME280;35527;54.616;39.786;2023-03-29T11:43:36;99033.53;;;9.04;100.00
49627;BME280;35527;54.616;39.786;2023-03-29T11:46:52;99023.69;;;9.12;100.00
49627;BME280;35527;54.616;39.786;2023-03-29T11:50:02;99006.34;;;8.97;100.00
49627;BME280;35527;54.616;39.786;2023-03-29T11:53:13;99017.78;;;8.91;100.00
49627;BME280;35527;54.616;39.786;2023-03-29T11:56:26;99029.91;;;8.89;100.00
49627;BME280;35527;54.616;39.786;2023-03-29T11:59:39;99028.22;;;8.88;100.00
49627;BME280;35527;54.616;39.786;2023-03-29T12:03:03;99032.19;;;8.95;100.00
49627;BME280;35527;54.616;39.786;2023-03-29T12:09:45;99036.38;;;8.79;100.00
49627;BME280;35527;54.616;39.786;2023-03-29T12:13:09;99036.94;;;8.86;100.00
49627;BME280;35527;54.616;39.786;2023-03-29T12:19:32;99029.66;;;8.75;100.00
49627;BME280;35527;54.616;39.786;2023-03-29T12:22:39;99041.28;;;8.85;100.00
49627;BME280;35527;54.616;39.786;2023-03-29T12:32:47;99040.53;;;9.02;100.00
49627;BME280;35527;54.616;39.786;2023-03-29T12:40:11;99037.72;;;8.88;100.00
49627;BME280;35527;54.616;39.786;2023-03-29T12:43:39;99055.38;;;8.97;100.00
49627;BME280;35527;54.616;39.786;2023-03-29T12:47:00;99045.31;;;8.91;100.00
49627;BME280;35527;54.616;39.786;2023-03-29T12:50:04;99046.78;;;8.96;100.00
49627;BME280;35527;54.616;39.786;2023-03-29T12:53:23;99044.00;;;9.20;100.00
49627;BME280;35527;54.616;39.786;2023-03-29T13:00:10;99018.22;;;9.56;100.00
49627;BME280;35527;54.616;39.786;2023-03-29T13:06:33;99017.97;;;9.24;100.00
49627;BME280;35527;54.616;39.786;2023-03-29T13:13:22;99039.31;;;9.28;100.00
49627;BME280;35527;54.616;39.786;2023-03-29T13:16:32;99015.53;;;9.21;100.00
49627;BME280;35527;54.616;39.786;2023-03-29T13:26:42;99046.44;;;9.42;100.00
49627;BME280;35527;54.616;39.786;2023-03-29T13:39:58;99091.75;;;9.30;100.00
49627;BME280;35527;54.616;39.786;2023-03-29T13:46:46;99054.34;;;9.20;100.00
49627;BME280;35527;54.616;39.786;2023-03-29T13:49:56;99064.47;;;9.24;100.00
49627;BME280;35527;54.616;39.786;2023-03-29T13:53:23;99069.69;;;9.23;100.00
49627;BME280;35527;54.616;39.786;2023-03-29T13:56:37;99069.97;;;9.17;100.00
49627;BME280;35527;54.616;39.786;2023-03-29T14:02:52;99061.53;;;9.13;100.00
49627;BME280;35527;54.616;39.786;2023-03-29T14:05:59;99068.22;;;9.17;100.00
49627;BME280;35527;54.616;39.786;2023-03-29T14:09:06;99093.19;;;9.17;100.00
49627;BME280;35527;54.616;39.786;2023-03-29T14:12:12;99084.47;;;9.19;100.00
49627;BME280;35527;54.616;39.786;2023-03-29T14:15:22;99069.13;;;9.16;99.52
49627;BME280;35527;54.616;39.786;2023-03-29T14:18:39;99080.56;;;9.30;98.77
49627;BME280;35527;54.616;39.786;2023-03-29T14:21:43;99082.50;;;9.43;98.14
49627;BME280;35527;54.616;39.786;2023-03-29T14:24:52;99081.53;;;9.46;95.77
49627;BME280;35527;54.616;39.786;2023-03-29T14:28:11;99086.56;;;9.49;94.19
49627;BME280;35527;54.616;39.786;2023-03-29T14:34:29;99095.56;;;9.59;89.52
49627;BME280;35527;54.616;39.786;2023-03-29T14:37:33;99104.59;;;9.51;88.27
49627;BME280;35527;54.616;39.786;2023-03-29T14:40:38;99100.09;;;9.73;86.12
49627;BME280;35527;54.616;39.786;2023-03-29T14:43:42;99091.84;;;9.65;86.53
49627;BME280;35527;54.616;39.786;2023-03-29T14:46:47;99095.75;;;9.55;84.98
49627;BME280;35527;54.616;39.786;2023-03-29T14:49:53;99102.38;;;9.79;84.55
49627;BME280;35527;54.616;39.786;2023-03-29T14:53:01;99098.53;;;9.69;83.51
49627;BME280;35527;54.616;39.786;2023-03-29T14:56:07;99087.44;;;9.67;83.00
49627;BME280;35527;54.616;39.786;2023-03-29T14:59:39;99099.16;;;9.74;81.18
49627;BME280;35527;54.616;39.786;2023-03-29T15:02:58;99096.44;;;9.58;80.38
49627;BME280;35527;54.616;39.786;2023-03-29T15:06:03;99103.94;;;9.64;82.20
49627;BME280;35527;54.616;39.786;2023-03-29T15:09:28;99100.91;;;9.74;80.60
49627;BME280;35527;54.616;39.786;2023-03-29T15:12:33;99095.56;;;9.59;82.03
49627;BME280;35527;54.616;39.786;2023-03-29T15:15:38;99100.38;;;9.48;81.83
49627;BME280;35527;54.616;39.786;2023-03-29T15:18:42;99101.16;;;9.50;82.80
49627;BME280;35527;54.616;39.786;2023-03-29T15:21:50;99105.00;;;9.41;83.41
49627;BME280;35527;54.616;39.786;2023-03-29T15:24:54;99087.66;;;9.62;83.22
49627;BME280;35527;54.616;39.786;2023-03-29T15:28:00;99100.72;;;9.40;84.95
49627;BME280;35527;54.616;39.786;2023-03-29T15:31:10;99113.34;;;9.46;85.42
49627;BME280;35527;54.616;39.786;2023-03-29T15:34:27;99092.22;;;9.38;86.50
49627;BME280;35527;54.616;39.786;2023-03-29T15:37:31;99091.75;;;9.30;87.10
49627;BME280;35527;54.616;39.786;2023-03-29T15:40:35;99107.38;;;9.27;87.75
49627;BME280;35527;54.616;39.786;2023-03-29T15:43:37;99099.06;;;9.20;88.35
49627;BME280;35527;54.616;39.786;2023-03-29T15:46:45;99091.09;;;9.06;89.11
49627;BME280;35527;54.616;39.786;2023-03-29T15:49:48;99095.91;;;9.33;88.75
49627;BME280;35527;54.616;39.786;2023-03-29T15:52:52;99118.25;;;9.34;88.97
49627;BME280;35527;54.616;39.786;2023-03-29T15:56:05;99099.25;;;9.35;88.90
49627;BME280;35527;54.616;39.786;2023-03-29T15:59:11;99101.72;;;9.19;90.08
49627;BME280;35527;54.616;39.786;2023-03-29T16:02:15;99131.09;;;9.16;90.64
49627;BME280;35527;54.616;39.786;2023-03-29T16:05:21;99126.06;;;9.32;90.80
49627;BME280;35527;54.616;39.786;2023-03-29T16:08:24;99138.09;;;9.13;92.13
49627;BME280;35527;54.616;39.786;2023-03-29T16:11:28;99135.94;;;9.03;92.10
49627;BME280;35527;54.616;39.786;2023-03-29T16:14:30;99152.50;;;9.18;92.84
49627;BME280;35527;54.616;39.786;2023-03-29T16:17:40;99144.56;;;9.23;93.38
49627;BME280;35527;54.616;39.786;2023-03-29T16:20:47;99148.03;;;8.83;94.68
49627;BME280;35527;54.616;39.786;2023-03-29T16:23:50;99152.47;;;8.99;97.69
49627;BME280;35527;54.616;39.786;2023-03-29T16:26:54;99164.97;;;9.09;96.81
49627;BME280;35527;54.616;39.786;2023-03-29T16:29:59;99169.44;;;8.85;97.96
49627;BME280;35527;54.616;39.786;2023-03-29T16:33:05;99150.34;;;8.68;100.00
49627;BME280;35527;54.616;39.786;2023-03-29T16:36:11;99149.38;;;8.50;100.00
49627;BME280;35527;54.616;39.786;2023-03-29T16:39:15;99169.22;;;8.48;100.00
49627;BME280;35527;54.616;39.786;2023-03-29T16:42:20;99161.59;;;8.67;100.00
49627;BME280;35527;54.616;39.786;2023-03-29T16:45:22;99167.03;;;8.39;100.00
49627;BME280;35527;54.616;39.786;2023-03-29T16:48:26;99174.47;;;8.67;100.00
49627;BME280;35527;54.616;39.786;2023-03-29T16:51:29;99168.94;;;8.34;100.00
49627;BME280;35527;54.616;39.786;2023-03-29T16:54:37;99173.94;;;8.37;100.00
49627;BME280;35527;54.616;39.786;2023-03-29T16:57:41;99154.66;;;8.25;100.00
49627;BME280;35527;54.616;39.786;2023-03-29T17:00:43;99137.28;;;8.30;100.00
49627;BME280;35527;54.616;39.786;2023-03-29T17:03:48;99167.31;;;8.31;100.00
49627;BME280;35527;54.616;39.786;2023-03-29T17:06:52;99158.63;;;8.34;100.00
49627;BME280;35527;54.616;39.786;2023-03-29T17:09:56;99156.41;;;8.25;100.00
49627;BME280;35527;54.616;39.786;2023-03-29T17:12:59;99171.69;;;8.29;100.00
49627;BME280;35527;54.616;39.786;2023-03-29T17:16:03;99181.94;;;8.31;100.00
49627;BME280;35527;54.616;39.786;2023-03-29T17:19:08;99186.16;;;8.76;100.00
49627;BME280;35527;54.616;39.786;2023-03-29T17:22:12;99192.66;;;8.64;100.00
49627;BME280;35527;54.616;39.786;2023-03-29T17:25:16;99210.19;;;8.56;100.00
49627;BME280;35527;54.616;39.786;2023-03-29T17:28:21;99209.47;;;8.30;100.00
49627;BME280;35527;54.616;39.786;2023-03-29T17:31:30;99216.53;;;8.25;100.00
49627;BME280;35527;54.616;39.786;2023-03-29T17:34:33;99211.97;;;8.32;100.00
49627;BME280;35527;54.616;39.786;2023-03-29T17:37:38;99203.81;;;8.21;100.00
49627;BME280;35527;54.616;39.786;2023-03-29T17:40:41;99226.53;;;8.11;100.00
49627;BME280;35527;54.616;39.786;2023-03-29T17:43:49;99232.41;;;8.37;100.00
49627;BME280;35527;54.616;39.786;2023-03-29T17:46:55;99221.41;;;8.33;100.00
49627;BME280;35527;54.616;39.786;2023-03-29T17:49:58;99210.47;;;8.26;100.00
49627;BME280;35527;54.616;39.786;2023-03-29T17:53:02;99212.56;;;8.17;100.00
49627;BME280;35527;54.616;39.786;2023-03-29T17:56:06;99205.31;;;8.04;100.00
49627;BME280;35527;54.616;39.786;2023-03-29T17:59:13;99205.97;;;7.87;100.00
49627;BME280;35527;54.616;39.786;2023-03-29T18:02:20;99223.66;;;7.97;100.00
49627;BME280;35527;54.616;39.786;2023-03-29T18:05:24;99234.81;;;7.74;100.00
49627;BME280;35527;54.616;39.786;2023-03-29T18:08:31;99218.94;;;8.08;100.00
49627;BME280;35527;54.616;39.786;2023-03-29T18:11:37;99232.91;;;7.79;100.00
49627;BME280;35527;54.616;39.786;2023-03-29T18:14:40;99230.44;;;7.99;100.00
49627;BME280;35527;54.616;39.786;2023-03-29T18:17:43;99219.81;;;7.85;100.00
49627;BME280;35527;54.616;39.786;2023-03-29T18:20:47;99232.56;;;7.88;100.00
49627;BME280;35527;54.616;39.786;2023-03-29T18:23:53;99223.31;;;7.82;100.00
49627;BME280;35527;54.616;39.786;2023-03-29T18:26:59;99229.38;;;7.81;100.00
49627;BME280;35527;54.616;39.786;2023-03-29T18:30:03;99237.13;;;7.81;100.00
49627;BME280;35527;54.616;39.786;2023-03-29T18:33:12;99237.66;;;7.89;100.00
49627;BME280;35527;54.616;39.786;2023-03-29T18:36:15;99227.66;;;7.82;100.00
49627;BME280;35527;54.616;39.786;2023-03-29T18:39:18;99223.81;;;7.92;100.00
49627;BME280;35527;54.616;39.786;2023-03-29T18:42:20;99224.28;;;7.80;100.00
49627;BME280;35527;54.616;39.786;2023-03-29T18:45:24;99225.66;;;7.88;100.00
49627;BME280;35527;54.616;39.786;2023-03-29T18:48:30;99221.41;;;7.64;100.00